Time;durP1;ratioP1;P1;durP2;ratioP2;P2;SDS_P1;SDS_P2;PMS_P1;PMS_P2;Temp;Humidity;BMP_temperature;BMP_pressure;BME280_temperature;BME280_humidity;BME280_pressure;Samples;Min_cycle;Max_cycle;Signal;HPM_P1;HPM_P2
2020/12/09 00:00:23;;;;;;;9.82;7.72;;;;;;;5.22;99.61;99063.28;5096202;28;20051;-79
2020/12/09 00:03:27;;;;;;;8.77;7.00;;;;;;;5.12;99.26;99061.53;5096114;28;20040;-80
2020/12/09 00:06:38;;;;;;;7.30;6.60;;;;;;;5.15;99.10;99070.13;5079542;28;20486;-79
2020/12/09 00:09:42;;;;;;;7.55;6.72;;;;;;;5.20;99.11;99064.41;5078971;28;20060;-78
2020/12/09 00:12:47;;;;;;;6.78;6.07;;;;;;;5.23;99.19;99056.97;5075642;28;20048;-79
2020/12/09 00:15:52;;;;;;;7.47;6.50;;;;;;;5.13;98.93;99060.59;5055613;28;20392;-79
2020/12/09 00:18:56;;;;;;;8.90;7.35;;;;;;;5.11;98.88;99059.88;5056614;28;20391;-77
2020/12/09 00:22:00;;;;;;;10.07;7.07;;;;;;;5.20;98.88;99056.41;5095760;28;20044;-78
2020/12/09 00:25:05;;;;;;;7.28;6.47;;;;;;;5.24;98.97;99052.50;5095590;28;20055;-79
2020/12/09 00:28:10;;;;;;;7.82;6.60;;;;;;;5.29;99.12;99058.28;5076750;28;20036;-77
2020/12/09 00:31:30;;;;;;;9.15;5.75;;;;;;;5.30;98.94;99049.31;5095801;28;20040;-78
2020/12/09 00:34:34;;;;;;;8.20;6.20;;;;;;;5.30;98.63;99051.97;5086065;28;20411;-80
2020/12/09 00:37:38;;;;;;;8.95;6.63;;;;;;;5.36;98.79;99047.97;5075040;28;20044;-78
2020/12/09 00:40:44;;;;;;;10.13;7.07;;;;;;;5.28;98.47;99050.44;5074026;28;20041;-79
2020/12/09 00:43:49;;;;;;;7.88;6.78;;;;;;;5.34;98.70;99050.72;5084987;28;20051;-80
2020/12/09 00:46:54;;;;;;;8.57;7.10;;;;;;;5.38;98.51;99048.66;5094422;28;20043;-80
2020/12/09 00:50:03;;;;;;;7.45;6.65;;;;;;;5.38;98.04;99044.19;5069960;28;20051;-78
2020/12/09 00:53:10;;;;;;;7.90;6.82;;;;;;;5.36;98.36;99050.63;5081689;28;20045;-79
2020/12/09 00:56:15;;;;;;;8.77;5.78;;;;;;;5.37;98.46;99055.78;5084371;28;20051;-79
2020/12/09 00:59:19;;;;;;;7.15;5.30;;;;;;;5.41;97.99;99067.84;5095008;28;20047;-80
2020/12/09 01:02:24;;;;;;;7.50;5.50;;;;;;;5.41;97.88;99067.00;5074928;28;20482;-77
2020/12/09 01:05:29;;;;;;;7.15;5.18;;;;;;;5.40;98.27;99055.53;5074939;28;20051;-78
2020/12/09 01:08:35;;;;;;;6.80;5.53;;;;;;;5.39;97.94;99063.63;5074837;28;20589;-79
2020/12/09 01:11:39;;;;;;;5.85;5.25;;;;;;;5.44;98.08;99066.72;5079468;28;20047;-78
2020/12/09 01:14:44;;;;;;;5.80;5.20;;;;;;;5.39;98.18;99067.13;5079472;28;20055;-78
2020/12/09 01:17:48;;;;;;;5.70;4.50;;;;;;;5.44;97.89;99067.56;5074028;28;20060;-81
2020/12/09 01:20:52;;;;;;;5.80;4.72;;;;;;;5.48;97.93;99060.19;5094642;28;20146;-78
2020/12/09 01:23:57;;;;;;;4.82;3.47;;;;;;;5.49;98.29;99062.69;5064932;28;20051;-79
2020/12/09 01:27:01;;;;;;;4.32;3.20;;;;;;;5.51;98.22;99060.75;5054369;28;20067;-80
2020/12/09 01:30:06;;;;;;;4.65;3.42;;;;;;;5.51;98.23;99058.06;5054413;28;20380;-78
2020/12/09 01:33:11;;;;;;;4.05;3.58;;;;;;;5.52;98.08;99064.25;5089543;28;20055;-78
2020/12/09 01:36:22;;;;;;;4.75;3.70;;;;;;;5.48;97.97;99060.19;5085367;28;20060;-78
2020/12/09 01:39:26;;;;;;;4.97;3.80;;;;;;;5.52;97.95;99062.44;5073818;28;20059;-79
2020/12/09 01:42:31;;;;;;;4.53;3.70;;;;;;;5.50;98.12;99059.06;5073874;28;20052;-78
2020/12/09 01:45:35;;;;;;;4.00;3.30;;;;;;;5.51;97.62;99058.06;5090950;28;20043;-77
2020/12/09 01:48:40;;;;;;;3.83;3.15;;;;;;;5.46;97.86;99046.16;5105077;28;20051;-79
2020/12/09 01:51:44;;;;;;;4.47;3.10;;;;;;;5.49;98.03;99054.72;5093863;28;20066;-80
2020/12/09 01:54:52;;;;;;;4.97;3.22;;;;;;;5.49;97.92;99052.06;5094287;28;20051;-79
2020/12/09 01:57:56;;;;;;;3.33;2.88;;;;;;;5.52;97.92;99049.13;5093128;28;20050;-78
2020/12/09 02:01:01;;;;;;;4.53;2.88;;;;;;;5.59;97.73;99058.25;5093793;28;20535;-79
2020/12/09 02:04:05;;;;;;;3.90;2.72;;;;;;;5.56;98.02;99042.56;5093403;28;20466;-79
2020/12/09 02:07:09;;;;;;;3.72;2.40;;;;;;;5.55;97.86;99040.03;5094158;28;20398;-79
2020/12/09 02:10:14;;;;;;;3.80;2.53;;;;;;;5.54;98.13;99041.00;5093040;28;20039;-79
2020/12/09 02:13:18;;;;;;;3.90;2.60;;;;;;;5.57;98.10;99044.25;5094151;28;20378;-81
2020/12/09 02:16:23;;;;;;;3.00;2.40;;;;;;;5.57;98.11;99024.78;5075716;28;20044;-79
2020/12/09 02:19:27;;;;;;;3.42;2.40;;;;;;;5.54;97.87;99027.69;5084458;28;20486;-78
2020/12/09 02:22:31;;;;;;;3.70;2.60;;;;;;;5.56;97.80;99028.41;5073663;28;20051;-79
2020/12/09 02:25:37;;;;;;;2.70;2.15;;;;;;;5.57;97.99;99028.28;5073784;28;20371;-79
2020/12/09 02:28:41;;;;;;;2.63;1.95;;;;;;;5.62;98.07;99027.88;5073056;28;20048;-78
2020/12/09 02:31:45;;;;;;;2.30;1.70;;;;;;;5.59;98.03;99015.66;5073144;28;20055;-79
2020/12/09 02:34:49;;;;;;;2.60;1.80;;;;;;;5.61;97.64;99015.53;5073551;28;20119;-79
2020/12/09 02:37:54;;;;;;;2.13;1.45;;;;;;;5.57;97.93;99017.63;5073229;28;20048;-81
2020/12/09 02:40:58;;;;;;;2.53;1.67;;;;;;;5.60;97.90;99019.19;5073461;28;20052;-80
2020/12/09 02:44:02;;;;;;;2.60;1.60;;;;;;;5.60;97.38;99017.38;5073141;28;20391;-80
2020/12/09 02:47:06;;;;;;;2.22;1.67;;;;;;;5.56;97.82;99017.75;5073284;28;20407;-79
2020/12/09 02:50:11;;;;;;;2.55;1.98;;;;;;;5.56;97.76;99023.91;5073393;28;20052;-79
2020/12/09 02:53:15;;;;;;;2.70;1.75;;;;;;;5.58;98.07;99021.97;5072745;28;20059;-79
2020/12/09 02:56:19;;;;;;;3.40;2.17;;;;;;;5.58;97.60;99021.97;5073571;28;20055;-78
2020/12/09 02:59:24;;;;;;;2.53;2.03;;;;;;;5.59;97.97;99025.47;5073535;28;20498;-79
2020/12/09 03:02:28;;;;;;;3.75;2.38;;;;;;;5.63;97.71;99018.91;5073455;28;20051;-79
2020/12/09 03:05:32;;;;;;;3.97;2.22;;;;;;;5.64;97.69;99020.59;5088126;28;20043;-79
2020/12/09 03:08:36;;;;;;;3.70;2.60;;;;;;;5.60;98.00;99020.03;5076425;28;20047;-79
2020/12/09 03:11:41;;;;;;;3.00;2.55;;;;;;;5.62;97.56;99017.22;5077183;28;20063;-79
2020/12/09 03:14:45;;;;;;;3.28;2.58;;;;;;;5.65;98.02;99022.28;5076518;28;20123;-79
2020/12/09 03:17:50;;;;;;;3.55;2.80;;;;;;;5.63;97.81;99019.72;5076350;28;20067;-80
2020/12/09 03:20:54;;;;;;;4.15;2.80;;;;;;;5.60;97.96;99006.72;5075905;28;20052;-79
2020/12/09 03:23:59;;;;;;;3.03;2.47;;;;;;;5.60;98.03;99012.03;5076883;28;20498;-79
2020/12/09 03:27:03;;;;;;;4.22;2.78;;;;;;;5.66;97.65;99013.28;5076904;28;20047;-79
2020/12/09 03:30:07;;;;;;;3.50;2.75;;;;;;;5.63;97.66;99014.41;5087359;28;20375;-79
2020/12/09 03:33:11;;;;;;;3.30;2.58;;;;;;;5.63;97.66;99000.28;5076552;28;20482;-79
2020/12/09 03:36:19;;;;;;;3.75;2.72;;;;;;;5.64;97.44;99005.47;5075676;28;20052;-80
2020/12/09 03:39:23;;;;;;;4.03;2.85;;;;;;;5.65;97.76;99001.81;5076228;28;20103;-78
2020/12/09 03:42:28;;;;;;;3.33;2.97;;;;;;;5.59;97.73;98997.03;5076556;28;20047;-78
2020/12/09 03:45:32;;;;;;;3.42;2.80;;;;;;;5.65;97.71;98996.47;5076180;28;20063;-79
2020/12/09 03:48:36;;;;;;;5.22;3.17;;;;;;;5.58;97.55;98987.38;5076159;28;20052;-78
2020/12/09 03:51:41;;;;;;;4.28;3.50;;;;;;;5.61;97.87;98995.06;5075214;28;20043;-78
2020/12/09 03:54:45;;;;;;;3.90;3.50;;;;;;;5.55;97.79;98977.00;5075539;28;20059;-80
2020/12/09 03:57:50;;;;;;;3.67;3.28;;;;;;;5.51;97.81;98983.56;5076117;28;20118;-80
2020/12/09 04:00:54;;;;;;;4.18;3.60;;;;;;;5.54;97.58;98987.78;5086946;28;20052;-79
2020/12/09 04:03:59;;;;;;;5.22;4.72;;;;;;;5.52;97.64;98979.09;5076058;28;20115;-79
2020/12/09 04:07:03;;;;;;;4.47;4.05;;;;;;;5.50;97.57;98979.25;5075651;28;20040;-78
2020/12/09 04:10:08;;;;;;;5.25;4.75;;;;;;;5.49;97.90;98982.03;5075639;28;20063;-79
2020/12/09 04:13:13;;;;;;;4.55;4.15;;;;;;;5.46;98.08;98984.94;5075737;28;20048;-79
2020/12/09 04:16:17;;;;;;;4.63;4.22;;;;;;;5.51;97.99;98977.41;5074584;28;20055;-80
2020/12/09 04:19:22;;;;;;;5.20;4.70;;;;;;;5.54;98.36;98988.63;5075197;28;20055;-79
2020/12/09 04:22:26;;;;;;;4.53;3.90;;;;;;;5.53;98.00;98984.25;5075648;28;20071;-80
2020/12/09 04:25:30;;;;;;;4.82;4.30;;;;;;;5.54;98.11;98983.31;5075404;28;20048;-79
2020/12/09 04:28:35;;;;;;;4.43;4.03;;;;;;;5.55;98.39;98976.16;5075215;28;20059;-79
2020/12/09 04:31:39;;;;;;;4.32;3.92;;;;;;;5.52;98.43;98982.59;5086006;28;20052;-79
2020/12/09 04:34:44;;;;;;;4.78;4.28;;;;;;;5.56;98.28;98989.31;5074831;28;20055;-79
2020/12/09 04:37:55;;;;;;;5.00;4.22;;;;;;;5.57;98.08;98996.34;5075140;28;20060;-79
2020/12/09 04:41:00;;;;;;;5.00;3.70;;;;;;;5.55;98.15;99000.97;5075008;28;20043;-79
2020/12/09 04:44:04;;;;;;;4.65;4.22;;;;;;;5.53;97.98;98994.91;5075084;28;20052;-80
2020/12/09 04:47:23;;;;;;;4.20;3.80;;;;;;;5.53;97.87;98989.59;5074174;28;20052;-79
2020/12/09 04:50:34;;;;;;;5.07;3.88;;;;;;;5.56;98.33;98991.13;5074916;28;20383;-79
2020/12/09 04:53:42;;;;;;;5.18;4.65;;;;;;;5.58;98.53;98992.69;5085606;28;20043;-77
2020/12/09 04:56:55;;;;;;;5.32;4.82;;;;;;;5.53;98.04;98991.44;5074387;28;20048;-79
2020/12/09 05:00:01;;;;;;;8.93;5.00;;;;;;;5.54;98.05;98985.13;5074566;28;20047;-79
2020/12/09 05:03:18;;;;;;;4.82;4.32;;;;;;;5.54;98.25;98985.13;5074349;28;20052;-79
2020/12/09 05:06:23;;;;;;;4.60;4.20;;;;;;;5.53;98.04;98994.09;5074749;28;20389;-78
2020/12/09 05:09:29;;;;;;;4.95;4.45;;;;;;;5.56;98.24;98997.31;5074421;28;20478;-79
2020/12/09 05:12:41;;;;;;;5.15;4.28;;;;;;;5.57;98.27;98991.03;5074501;28;20056;-79
2020/12/09 05:15:50;;;;;;;4.18;3.78;;;;;;;5.60;98.31;98989.91;5074279;28;20051;-78
2020/12/09 05:18:56;;;;;;;4.97;3.95;;;;;;;5.56;98.23;98984.00;5073949;28;20055;-78
2020/12/09 05:22:08;;;;;;;4.00;3.58;;;;;;;5.55;97.96;98982.34;5074285;28;20051;-79
2020/12/09 05:25:13;;;;;;;4.60;3.92;;;;;;;5.60;97.82;98997.88;5073569;28;20044;-78
2020/12/09 05:28:17;;;;;;;4.20;3.80;;;;;;;5.67;97.49;98991.03;5074197;28;20055;-78
2020/12/09 05:31:22;;;;;;;4.15;3.35;;;;;;;5.60;97.59;98992.56;5084953;28;20044;-78
2020/12/09 05:34:27;;;;;;;4.15;3.28;;;;;;;5.56;97.57;98996.47;5074092;28;20488;-78
2020/12/09 05:37:32;;;;;;;4.40;3.60;;;;;;;5.50;97.49;98997.03;5074016;28;20052;-78
2020/12/09 05:40:38;;;;;;;4.55;3.65;;;;;;;5.51;97.63;98998.69;5074014;28;20052;-78
2020/12/09 05:43:43;;;;;;;4.20;3.53;;;;;;;5.52;97.61;99003.03;5073195;28;20051;-79
2020/12/09 05:47:03;;;;;;;4.20;3.75;;;;;;;5.55;97.52;99013.41;5073526;28;20525;-79
2020/12/09 05:50:08;;;;;;;5.13;3.13;;;;;;;5.52;97.62;99011.03;5084509;28;20048;-79
2020/12/09 05:53:18;;;;;;;3.83;3.10;;;;;;;5.50;97.59;99008.50;5073801;28;20056;-79
2020/12/09 05:56:26;;;;;;;3.83;2.80;;;;;;;5.52;97.52;99011.88;5073897;28;20388;-78
2020/12/09 05:59:41;;;;;;;4.47;3.22;;;;;;;5.52;97.53;99019.00;5073762;28;20052;-78
2020/12/09 06:02:46;;;;;;;13.52;12.13;;;;;;;5.49;97.80;99011.28;5073543;28;20067;-78
2020/12/09 06:06:06;;;;;;;100.78;71.25;;;;;;;5.49;98.04;99011.28;5073699;28;20047;-78
2020/12/09 06:09:11;;;;;;;28.52;20.58;;;;;;;5.53;97.95;99010.06;5073961;28;20052;-78
2020/12/09 06:12:15;;;;;;;4.68;3.22;;;;;;;5.51;97.95;99015.50;5073717;28;20051;-78
2020/12/09 06:15:23;;;;;;;3.35;2.60;;;;;;;5.40;97.74;99020.09;5073727;28;20063;-78
2020/12/09 06:18:30;;;;;;;3.40;2.83;;;;;;;5.45;97.24;99025.84;5072954;28;20055;-78
2020/12/09 06:21:34;;;;;;;3.47;2.90;;;;;;;5.31;97.42;99023.56;5073721;28;20407;-78
2020/12/09 06:24:39;;;;;;;5.43;2.75;;;;;;;5.18;97.33;99019.28;5084604;28;20055;-79
2020/12/09 06:27:43;;;;;;;3.97;2.80;;;;;;;5.04;97.62;99021.47;5073704;28;20051;-77
2020/12/09 06:30:49;;;;;;;3.83;2.60;;;;;;;4.95;97.46;99028.44;5073272;28;20052;-80
2020/12/09 06:33:54;;;;;;;3.53;2.50;;;;;;;4.91;97.69;99028.84;5073303;28;20051;-77
2020/12/09 06:37:10;;;;;;;3.35;2.40;;;;;;;4.82;97.81;99034.91;5072481;28;20052;-79
2020/12/09 06:40:15;;;;;;;3.63;2.65;;;;;;;4.74;97.75;99034.75;5077410;28;20055;-77
2020/12/09 06:43:20;;;;;;;2.70;2.00;;;;;;;4.65;97.60;99040.81;5076590;28;20051;-79
2020/12/09 06:46:41;;;;;;;4.15;2.40;;;;;;;4.57;97.59;99042.31;5088213;28;20383;-79
2020/12/09 06:59:45;;;;;;;3.45;2.10;;;;;;;4.36;96.52;99044.13;5163396;27;20420;-77
2020/12/09 07:28:39;;;;;;;2.75;1.77;;;;;;;4.37;93.31;99084.81;5111740;27;20476;-80
2020/12/09 07:31:47;;;;;;;3.50;1.83;;;;;;;4.36;93.71;99075.16;5087115;28;20047;-86
2020/12/09 07:34:56;;;;;;;3.22;1.80;;;;;;;4.32;93.58;99085.16;5087112;28;20036;-78
2020/12/09 07:38:00;;;;;;;3.28;1.95;;;;;;;4.32;93.46;99079.03;5078553;28;20071;-85
2020/12/09 07:41:05;;;;;;;2.83;1.73;;;;;;;4.32;93.61;99079.88;5085620;28;20044;-89
2020/12/09 07:44:14;;;;;;;3.05;1.95;;;;;;;4.31;93.04;99080.84;5095649;28;20595;-79
2020/12/09 07:47:27;;;;;;;3.03;1.70;;;;;;;4.24;93.03;99084.97;5081427;28;20055;-83
2020/12/09 07:50:33;;;;;;;3.33;1.83;;;;;;;4.21;93.01;99087.88;5084551;28;20047;-86
2020/12/09 07:53:37;;;;;;;4.80;1.70;;;;;;;4.24;92.96;99098.25;5087153;28;20054;-79
2020/12/09 07:56:42;;;;;;;2.95;1.65;;;;;;;4.23;93.20;99096.56;5098505;28;20409;-80
2020/12/09 07:59:46;;;;;;;3.63;1.50;;;;;;;4.26;92.62;99095.47;5110289;28;20484;-80
2020/12/09 08:08:00;;;;;;;2.13;1.35;;;;;;;4.07;92.90;99100.59;5111741;27;20354;-86
2020/12/09 08:11:10;;;;;;;2.20;1.50;;;;;;;3.99;93.28;99095.06;5087795;28;20058;-84
2020/12/09 08:14:14;;;;;;;2.55;1.65;;;;;;;3.94;93.76;99096.28;5036854;28;20049;-82
2020/12/09 08:17:32;;;;;;;2.30;1.40;;;;;;;3.96;93.67;99104.13;5047480;28;20037;-82
2020/12/09 08:20:48;;;;;;;2.67;1.40;;;;;;;3.96;94.13;99112.06;5061355;28;20044;-83
2020/12/09 08:23:52;;;;;;;2.50;1.20;;;;;;;3.97;93.98;99102.31;5069168;28;20037;-82
2020/12/09 08:26:57;;;;;;;3.08;1.20;;;;;;;3.99;94.20;99105.69;5058824;28;20049;-81
2020/12/09 08:30:02;;;;;;;2.20;1.38;;;;;;;4.05;94.61;99113.16;5082190;28;20399;-84
2020/12/09 08:33:12;;;;;;;2.33;1.33;;;;;;;4.07;94.81;99113.88;5091299;28;20048;-86
2020/12/09 08:36:20;;;;;;;2.20;1.20;;;;;;;4.08;94.51;99113.75;5056142;28;20048;-83
2020/12/09 08:39:24;;;;;;;2.22;1.25;;;;;;;4.17;94.61;99120.97;5058530;28;20041;-84
2020/12/09 08:42:29;;;;;;;3.85;1.50;;;;;;;4.18;94.66;99122.66;5071070;28;20497;-82
2020/12/09 08:45:34;;;;;;;2.13;1.33;;;;;;;4.15;94.64;99122.88;5069742;28;20033;-82
2020/12/09 08:48:39;;;;;;;2.83;2.10;;;;;;;4.19;94.49;99137.63;5069788;28;20051;-87
2020/12/09 08:51:45;;;;;;;2.03;1.40;;;;;;;4.31;94.90;99138.44;5091335;28;20058;-83
2020/12/09 08:54:50;;;;;;;2.72;1.70;;;;;;;4.43;94.72;99148.91;5082897;28;20035;-83
2020/12/09 08:57:54;;;;;;;1.77;1.20;;;;;;;4.53;94.67;99155.16;5096403;28;20036;-82
2020/12/09 09:01:02;;;;;;;2.22;1.45;;;;;;;4.74;94.56;99167.63;5103296;28;20044;-82
2020/12/09 09:04:08;;;;;;;2.70;1.70;;;;;;;4.83;94.04;99165.06;5078492;28;20047;-83
2020/12/09 09:07:13;;;;;;;2.90;1.30;;;;;;;4.99;93.84;99168.09;5074962;28;20066;-83
2020/12/09 09:10:17;;;;;;;3.35;2.17;;;;;;;5.15;93.01;99171.19;5075431;28;20048;-84
2020/12/09 09:13:21;;;;;;;3.10;1.75;;;;;;;5.26;92.87;99172.91;5088597;28;20068;-88
2020/12/09 09:16:25;;;;;;;2.53;1.60;;;;;;;5.42;92.94;99160.00;5075681;28;20046;-83
2020/12/09 09:19:31;;;;;;;4.20;2.50;;;;;;;5.54;92.17;99163.41;5096809;28;20044;-85
2020/12/09 09:22:35;;;;;;;4.18;2.50;;;;;;;5.70;91.77;99167.28;5096009;28;20047;-80
2020/12/09 10:58:14;;;;;;;2.60;1.52;;;;;;;6.16;94.37;99144.63;5091159;27;20621;-78
2020/12/09 11:01:20;;;;;;;4.28;2.00;;;;;;;6.19;94.43;99136.38;5091437;28;20492;-78
2020/12/09 11:04:25;;;;;;;2.40;1.80;;;;;;;6.19;94.74;99147.88;5090130;28;20040;-79
2020/12/09 11:07:29;;;;;;;3.38;2.05;;;;;;;6.12;94.42;99138.75;5090603;28;20041;-80
2020/12/09 11:10:44;;;;;;;3.25;2.25;;;;;;;6.05;94.42;99140.25;5090531;28;20044;-80
2020/12/09 11:13:48;;;;;;;4.85;2.40;;;;;;;6.10;94.73;99142.53;5091454;28;20474;-79
2020/12/09 11:16:53;;;;;;;3.38;2.70;;;;;;;6.22;94.64;99141.44;5085799;28;20052;-77
2020/12/09 11:19:57;;;;;;;3.95;2.60;;;;;;;6.32;94.14;99140.47;5091198;28;20048;-78
2020/12/09 11:23:01;;;;;;;3.40;2.10;;;;;;;6.40;93.55;99131.78;5070030;28;20054;-80
2020/12/09 11:26:07;;;;;;;4.15;2.63;;;;;;;6.45;92.84;99140.22;5070788;28;20479;-78
2020/12/09 11:29:12;;;;;;;4.07;2.60;;;;;;;6.57;92.42;99145.28;5070776;28;20492;-78
2020/12/09 11:32:16;;;;;;;4.80;2.75;;;;;;;6.49;91.46;99139.78;5070646;28;20049;-79
2020/12/09 11:35:21;;;;;;;6.68;4.40;;;;;;;6.53;91.18;99145.69;5070541;28;20455;-78
2020/12/09 11:38:26;;;;;;;7.32;6.63;;;;;;;6.52;91.18;99144.84;5069839;28;20071;-78
2020/12/09 11:41:34;;;;;;;3.75;2.20;;;;;;;6.58;91.39;99154.13;5069664;28;20378;-78
2020/12/09 11:44:38;;;;;;;6.10;4.72;;;;;;;6.57;91.30;99150.59;5070435;28;20053;-79
2020/12/09 11:47:42;;;;;;;4.75;3.70;;;;;;;6.57;91.12;99150.59;5070249;28;20040;-79
2020/12/09 11:50:48;;;;;;;5.70;5.10;;;;;;;6.61;91.17;99155.66;5070270;28;20401;-79
2020/12/09 11:53:53;;;;;;;7.78;7.07;;;;;;;6.70;91.52;99150.34;5070126;28;20051;-79
2020/12/09 11:56:58;;;;;;;4.78;3.72;;;;;;;6.78;90.93;99155.81;5079683;28;20407;-78
2020/12/09 12:00:04;;;;;;;7.88;7.10;;;;;;;6.67;90.96;99150.59;5090440;28;20485;-79
2020/12/09 12:03:09;;;;;;;3.72;2.80;;;;;;;6.67;90.56;99161.28;5090007;28;20051;-79
2020/12/09 12:06:22;;;;;;;3.83;2.60;;;;;;;6.72;90.89;99153.69;5090017;28;20052;-78
2020/12/09 12:09:28;;;;;;;4.40;3.78;;;;;;;6.81;90.74;99152.03;5064530;28;20052;-79
2020/12/09 12:12:33;;;;;;;3.75;3.03;;;;;;;6.82;90.10;99151.03;5076448;28;20044;-79
2020/12/09 12:15:38;;;;;;;4.38;3.30;;;;;;;6.91;90.12;99151.03;5076469;28;20051;-80
2020/12/09 12:18:43;;;;;;;4.30;2.95;;;;;;;7.05;90.31;99153.28;5076204;28;20045;-80
2020/12/09 12:21:48;;;;;;;3.17;2.40;;;;;;;7.22;90.13;99157.91;5076245;28;20053;-79
2020/12/09 12:24:53;;;;;;;2.80;1.80;;;;;;;7.38;89.58;99161.81;5076191;28;20418;-79
2020/12/09 12:27:57;;;;;;;2.78;1.70;;;;;;;7.37;89.54;99160.97;5076190;28;20044;-78
2020/12/09 12:31:04;;;;;;;2.97;1.80;;;;;;;7.42;88.93;99153.38;5064009;28;20048;-86
2020/12/09 12:34:09;;;;;;;2.92;2.00;;;;;;;7.40;88.79;99167.84;5087111;28;20067;-81
2020/12/09 12:37:13;;;;;;;2.70;2.28;;;;;;;7.38;89.46;99154.63;5086804;28;20112;-81
2020/12/09 12:40:17;;;;;;;3.30;1.85;;;;;;;7.34;89.29;99161.25;5063499;28;20048;-79
2020/12/09 12:43:25;;;;;;;5.28;1.85;;;;;;;7.33;89.83;99162.25;5063518;28;20051;-81
2020/12/09 12:46:29;;;;;;;2.40;1.63;;;;;;;7.33;90.37;99164.06;5076089;28;20123;-79
2020/12/09 12:49:33;;;;;;;3.00;1.70;;;;;;;7.35;89.76;99162.09;5075678;28;20037;-80
2020/12/09 12:52:37;;;;;;;2.80;1.65;;;;;;;7.35;90.35;99162.09;5075735;28;20052;-79
2020/12/09 12:55:42;;;;;;;2.72;1.75;;;;;;;7.33;90.84;99150.72;5075560;28;20049;-77
2020/12/09 12:58:47;;;;;;;3.97;2.35;;;;;;;7.32;90.95;99155.22;5075565;28;20049;-84
2020/12/09 13:01:52;;;;;;;3.33;2.28;;;;;;;7.33;91.03;99153.38;5063033;28;20470;-79
2020/12/09 13:04:57;;;;;;;2.67;1.60;;;;;;;7.38;91.67;99164.47;5063357;28;20045;-78
2020/12/09 13:08:01;;;;;;;2.28;1.60;;;;;;;7.38;91.70;99153.81;5075383;28;20052;-78
2020/12/09 13:11:09;;;;;;;2.78;1.77;;;;;;;7.31;91.20;99155.38;5088841;28;20050;-79
2020/12/09 13:14:14;;;;;;;3.25;1.70;;;;;;;7.41;91.15;99156.16;5095195;28;20055;-81
2020/12/09 13:17:20;;;;;;;2.78;1.50;;;;;;;7.41;91.35;99156.16;5095087;28;20120;-79
2020/12/09 13:20:24;;;;;;;4.00;1.80;;;;;;;7.36;91.05;99159.25;5094374;28;20032;-78
2020/12/09 13:23:29;;;;;;;3.90;2.92;;;;;;;7.16;91.92;99168.28;5095308;28;20040;-78
2020/12/09 13:26:34;;;;;;;4.47;2.90;;;;;;;7.09;91.81;99167.16;5095243;28;20043;-78
2020/12/09 13:29:38;;;;;;;4.45;2.92;;;;;;;6.91;92.27;99158.22;5095233;28;20047;-79
2020/12/09 13:32:42;;;;;;;5.75;3.28;;;;;;;6.88;92.43;99170.00;5106011;28;20410;-79
2020/12/09 13:35:46;;;;;;;3.20;2.60;;;;;;;6.84;92.20;99173.91;5095470;28;20048;-78
2020/12/09 13:38:53;;;;;;;3.95;2.47;;;;;;;6.73;92.65;99171.41;5095005;28;20040;-78
2020/12/09 13:41:57;;;;;;;8.18;5.07;;;;;;;6.68;92.88;99175.47;5082580;28;20141;-79
2020/12/09 13:45:03;;;;;;;5.22;3.47;;;;;;;6.57;92.81;99174.59;5094701;28;20055;-78
2020/12/09 13:48:07;;;;;;;2.90;2.20;;;;;;;6.48;92.41;99174.59;5094913;28;20047;-78
2020/12/09 13:51:12;;;;;;;3.70;2.70;;;;;;;6.46;92.20;99177.41;5094814;28;20055;-79
2020/12/09 13:54:17;;;;;;;3.20;2.40;;;;;;;6.42;91.95;99172.47;5094734;28;20047;-77
2020/12/09 13:57:22;;;;;;;3.15;2.28;;;;;;;6.48;91.76;99177.25;5094136;28;20055;-77
2020/12/09 14:00:26;;;;;;;4.43;1.88;;;;;;;6.60;91.47;99175.28;5105515;28;20394;-78
2020/12/09 14:03:30;;;;;;;2.85;1.77;;;;;;;6.67;91.56;99174.59;5094820;28;20505;-78
2020/12/09 14:06:35;;;;;;;2.58;1.48;;;;;;;6.71;91.11;99177.84;5070942;28;20493;-78
2020/12/09 14:09:39;;;;;;;3.33;1.70;;;;;;;6.80;90.72;99187.66;5081999;28;20055;-78
2020/12/09 14:12:43;;;;;;;3.80;2.20;;;;;;;6.82;90.69;99188.38;5094422;28;20418;-77
2020/12/09 14:15:52;;;;;;;3.65;2.30;;;;;;;6.81;90.49;99192.03;5094116;28;20493;-77
2020/12/09 14:18:58;;;;;;;4.28;2.25;;;;;;;6.88;90.37;99195.81;5094515;28;20055;-78
2020/12/09 14:22:03;;;;;;;2.53;1.75;;;;;;;6.89;90.27;99201.00;5081451;28;20402;-78
2020/12/09 14:25:09;;;;;;;3.13;1.70;;;;;;;6.90;90.48;99207.19;5094206;28;20043;-78
2020/12/09 14:28:25;;;;;;;3.15;1.50;;;;;;;6.88;90.53;99217.16;5081655;28;20383;-78
2020/12/09 14:31:30;;;;;;;5.32;1.67;;;;;;;6.90;91.02;99218.72;5093933;28;20473;-78
2020/12/09 14:34:35;;;;;;;2.50;1.70;;;;;;;6.92;90.95;99216.75;5094140;28;20114;-78
2020/12/09 14:37:39;;;;;;;3.45;1.48;;;;;;;6.85;90.75;99214.75;5093867;28;20051;-78
2020/12/09 14:40:44;;;;;;;3.22;1.90;;;;;;;6.78;91.36;99214.50;5094092;28;20047;-78
2020/12/09 14:43:52;;;;;;;4.53;2.13;;;;;;;6.79;91.63;99215.34;5093978;28;20050;-80
2020/12/09 14:46:56;;;;;;;3.53;2.33;;;;;;;6.75;92.09;99221.91;5094016;28;20058;-78
2020/12/09 14:50:00;;;;;;;5.28;2.80;;;;;;;6.76;92.00;99219.13;5094262;28;20059;-79
2020/12/09 14:53:05;;;;;;;6.10;3.72;;;;;;;6.78;92.54;99227.81;5093870;28;20055;-78
2020/12/09 14:56:16;;;;;;;8.05;4.47;;;;;;;6.80;92.26;99223.19;5093525;28;20066;-78
2020/12/09 14:59:20;;;;;;;6.30;3.05;;;;;;;6.81;92.18;99224.03;5093889;28;20453;-78
2020/12/09 15:02:25;;;;;;;4.30;2.53;;;;;;;6.76;92.46;99219.13;5093796;28;20055;-77
2020/12/09 15:05:36;;;;;;;5.18;2.80;;;;;;;6.73;92.63;99223.88;5093830;28;20063;-78
2020/12/09 15:08:44;;;;;;;4.22;3.22;;;;;;;6.67;92.15;99235.94;5093921;28;20583;-78
2020/12/09 15:11:49;;;;;;;3.90;3.17;;;;;;;6.63;92.54;99231.88;5093739;28;20055;-78
2020/12/09 15:14:53;;;;;;;6.90;3.28;;;;;;;6.65;92.53;99237.03;5104117;28;20401;-79
2020/12/09 15:17:58;;;;;;;5.13;3.13;;;;;;;6.62;92.68;99237.34;5104460;28;20055;-79
2020/12/09 15:21:02;;;;;;;3.42;2.78;;;;;;;6.54;93.26;99236.19;5093567;28;20047;-79
2020/12/09 15:24:08;;;;;;;3.63;3.05;;;;;;;6.55;93.29;99245.88;5081008;28;20374;-78
2020/12/09 15:27:13;;;;;;;4.38;3.22;;;;;;;6.50;93.31;99242.78;5093550;28;20043;-78
2020/12/09 15:30:17;;;;;;;3.85;2.67;;;;;;;6.49;93.51;99241.06;5093241;28;20048;-79
2020/12/09 15:33:21;;;;;;;5.22;2.35;;;;;;;6.49;93.43;99250.91;5093560;28;20047;-79
2020/12/09 15:36:27;;;;;;;3.55;2.50;;;;;;;6.43;93.28;99248.78;5093589;28;20043;-78
2020/12/09 15:39:31;;;;;;;3.15;2.40;;;;;;;6.40;93.71;99246.38;5093565;28;20489;-80
2020/12/09 15:42:37;;;;;;;4.00;2.35;;;;;;;6.39;93.78;99250.03;5093484;28;20047;-79
2020/12/09 15:45:43;;;;;;;3.45;2.30;;;;;;;6.37;93.71;99260.00;5108116;28;20055;-78
2020/12/09 15:48:48;;;;;;;2.80;2.30;;;;;;;6.36;93.88;99268.97;5097309;28;20043;-78
2020/12/09 15:51:53;;;;;;;4.80;2.90;;;;;;;6.34;93.92;99273.59;5097196;28;20485;-83
2020/12/09 15:54:58;;;;;;;3.88;2.53;;;;;;;6.31;93.93;99266.72;5108031;28;20146;-83
2020/12/09 15:58:03;;;;;;;2.75;2.13;;;;;;;6.35;94.08;99283.25;5096306;28;20055;-79
2020/12/09 16:01:07;;;;;;;3.78;2.53;;;;;;;6.32;94.02;99281.69;5096986;28;20051;-79
2020/12/09 16:04:12;;;;;;;4.57;2.90;;;;;;;6.31;94.47;99281.84;5096994;28;20051;-78
2020/12/09 16:07:16;;;;;;;4.68;3.20;;;;;;;6.23;94.71;99279.84;5097257;28;20482;-79
2020/12/09 16:10:22;;;;;;;4.93;3.60;;;;;;;6.24;94.56;99278.03;5096907;28;20143;-78
2020/12/09 16:13:27;;;;;;;4.22;2.90;;;;;;;6.26;94.71;99279.59;5096882;28;20059;-78
2020/12/09 16:16:31;;;;;;;5.35;2.80;;;;;;;6.32;94.29;99284.38;5097023;28;20051;-79
2020/12/09 16:19:36;;;;;;;7.53;4.60;;;;;;;6.25;93.98;99283.22;5096723;28;20047;-78
2020/12/09 16:22:40;;;;;;;6.85;4.43;;;;;;;6.25;94.49;99285.03;5097009;28;20067;-79
2020/12/09 16:25:45;;;;;;;5.20;3.53;;;;;;;6.24;94.39;99283.34;5096371;28;20385;-79
2020/12/09 16:28:50;;;;;;;3.92;3.25;;;;;;;6.24;94.57;99280.69;5107714;28;20355;-79
2020/12/09 16:31:54;;;;;;;4.13;3.10;;;;;;;6.27;94.87;99280.44;5107471;28;20572;-79
2020/12/09 16:34:59;;;;;;;4.43;3.17;;;;;;;6.27;94.38;99288.44;5083970;28;20051;-79
2020/12/09 16:38:03;;;;;;;4.68;3.13;;;;;;;6.24;94.14;99302.00;5096482;28;20114;-78
2020/12/09 16:41:07;;;;;;;5.10;3.05;;;;;;;6.24;94.41;99304.69;5096335;28;20047;-79
2020/12/09 16:44:12;;;;;;;4.22;3.28;;;;;;;6.16;94.34;99310.66;5095951;28;20402;-78
2020/12/09 16:47:18;;;;;;;7.38;4.30;;;;;;;6.13;94.45;99310.06;5096280;28;20390;-79
2020/12/09 16:50:24;;;;;;;6.78;6.18;;;;;;;6.16;94.76;99309.81;5083823;28;20378;-78
2020/12/09 16:53:29;;;;;;;7.47;6.78;;;;;;;6.14;95.01;99307.28;5107039;28;20051;-78
2020/12/09 16:56:33;;;;;;;6.10;5.13;;;;;;;6.14;95.09;99315.28;5095693;28;20051;-78